»·PEaware :: DAL1777 KMSO-KSLC

DAL1777 :: KMSO-KSLC

FLIGHT INFORMATION

Flight Status: Arrived
Operator:
Delta Air Lines
More flights by this operator :: More flights under this callsign
Pilot: Ben F. (2808)
Aircraft: BOEING 727-200
(B722)
More flights by this aircraft type
Origin: KMSO Missoula Intl
United States
Destination: KSLC Salt Lake City Intl
United States
More flights between these airports :: More routes between these airports
Route: MZULA5 MSO LKT PIH BEARR5
File this flight plan on PilotEdge
Remarks:
Altitude:
(Current/Filed)
31,000ft
Speed:
(Current/Filed)
479kts
Departed: 10-Oct-18 08:06 AM
Arrived: 10-Oct-18 09:06 AM
Distance/Time
Traveled:
379nm/1:00
Distance/Time
To Go:
Arrived

Flight Plot

Page will automatically refresh every two minutes.

Flight plan parsing failed; only flown route is shown


Map Options




Map Legend


Flown Route
Filed Route
Departure Airport
Arrival Airport
Navaid (VOR, NDB)
Fix

Horizontal Profiles

Position Reports

Time Latitude Longitude Heading Altitude Ground
Speed
10-Oct-18 07:47 46.919343 -114.085381 114 3217ft 0kts
10-Oct-18 07:48 46.919343 -114.085381 114 3217ft 0kts
10-Oct-18 07:49 46.919343 -114.085381 114 3217ft 0kts
10-Oct-18 07:50 46.919343 -114.085381 114 3217ft 0kts
10-Oct-18 07:51 46.919343 -114.085381 114 3217ft 0kts
10-Oct-18 07:52 46.919343 -114.085381 114 3217ft 0kts
10-Oct-18 07:53 46.919343 -114.085381 114 3217ft 0kts
10-Oct-18 07:54 46.919343 -114.085381 114 3217ft 0kts
10-Oct-18 07:55 46.919343 -114.085381 114 3217ft 0kts
10-Oct-18 07:56 46.919343 -114.085381 114 3217ft 0kts
10-Oct-18 07:57 46.919343 -114.085381 114 3217ft 0kts
10-Oct-18 07:58 46.919417 -114.085618 114 3217ft 2kts
10-Oct-18 07:59 46.919904 -114.085961 202 3217ft 2kts
10-Oct-18 08:00 46.920049 -114.085821 219 3217ft 0kts
10-Oct-18 08:01 46.920049 -114.085821 219 3217ft 0kts
10-Oct-18 08:02 46.920049 -114.085821 219 3217ft 0kts
10-Oct-18 08:03 46.919386 -114.087692 272 3217ft 14kts
10-Oct-18 08:04 46.919410 -114.093600 308 3217ft 26kts
10-Oct-18 08:05 46.923860 -114.101218 311 3217ft 23kts
10-Oct-18 08:06 46.925499 -114.105453 221 3217ft 0kts
10-Oct-18 08:07 46.925298 -114.105711 221 3217ft 9kts
10-Oct-18 08:08 46.921073 -114.100076 130 3217ft 102kts
10-Oct-18 08:09 46.886331 -114.068461 198 5015ft 179kts
10-Oct-18 08:10 46.835832 -114.073124 153 7230ft 214kts
10-Oct-18 08:11 46.768785 -114.056345 170 9247ft 278kts
10-Oct-18 08:12 46.690323 -114.039775 170 12127ft 301kts
10-Oct-18 08:13 46.602530 -114.021980 171 14255ft 340kts
10-Oct-18 08:14 46.512685 -114.066938 202 16676ft 359kts
10-Oct-18 08:15 46.413191 -114.081529 178 18818ft 369kts
10-Oct-18 08:16 46.309067 -114.080620 178 20800ft 383kts
10-Oct-18 08:17 46.201367 -114.080843 179 22600ft 396kts
10-Oct-18 08:18 46.090422 -114.081203 179 24246ft 407kts
10-Oct-18 08:19 45.976483 -114.081588 179 25729ft 417kts
10-Oct-18 08:20 45.863677 -114.081971 180 27022ft 426kts
10-Oct-18 08:21 45.725646 -114.082437 180 28417ft 435kts
10-Oct-18 08:22 45.624830 -114.082777 180 29323ft 442kts
10-Oct-18 08:23 45.500791 -114.083195 180 30189ft 451kts
10-Oct-18 08:24 45.375568 -114.083621 181 31023ft 459kts
10-Oct-18 08:25 45.244727 -114.084070 180 31027ft 484kts
10-Oct-18 08:26 45.108123 -114.084521 181 31023ft 499kts
10-Oct-18 08:27 44.972428 -114.049787 157 31031ft 512kts
10-Oct-18 08:28 44.847723 -113.966097 155 31020ft 522kts
10-Oct-18 08:29 44.717615 -113.876800 155 30998ft 530kts
10-Oct-18 08:30 44.585212 -113.786271 154 30967ft 534kts
10-Oct-18 08:31 44.452399 -113.695917 154 30968ft 536kts
10-Oct-18 08:32 44.318877 -113.605541 154 30968ft 537kts
10-Oct-18 08:33 44.185728 -113.515877 155 30988ft 535kts
10-Oct-18 08:34 44.054161 -113.427619 154 30997ft 534kts
10-Oct-18 08:35 43.925473 -113.341510 155 30998ft 535kts
10-Oct-18 08:36 43.797029 -113.255970 155 30990ft 536kts
10-Oct-18 08:37 43.687210 -113.183304 155 30991ft 537kts
10-Oct-18 08:38 43.556213 -113.097115 155 30992ft 538kts
10-Oct-18 08:39 43.423359 -113.010098 156 30995ft 538kts
10-Oct-18 08:40 43.290508 -112.923546 156 30983ft 536kts
10-Oct-18 08:41 43.158153 -112.837765 156 30971ft 528kts
10-Oct-18 08:42 43.028079 -112.753824 156 30964ft 519kts
10-Oct-18 08:43 42.900129 -112.671629 157 30964ft 513kts
10-Oct-18 08:44 42.771508 -112.622962 170 30967ft 503kts
10-Oct-18 08:45 42.636352 -112.582037 170 30523ft 502kts
10-Oct-18 08:46 42.502631 -112.542071 170 28565ft 493kts
10-Oct-18 08:47 42.373035 -112.503511 169 26631ft 485kts
10-Oct-18 08:48 42.243791 -112.465207 169 24671ft 475kts
10-Oct-18 08:49 42.118331 -112.457129 184 23616ft 432kts
10-Oct-18 08:50 42.001502 -112.463114 184 21747ft 417kts
10-Oct-18 08:51 41.894136 -112.469000 184 19727ft 386kts
10-Oct-18 08:52 41.796241 -112.474423 183 17795ft 380kts
10-Oct-18 08:53 41.692213 -112.479997 183 15731ft 377kts
10-Oct-18 08:54 41.592922 -112.485259 183 15976ft 372kts
10-Oct-18 08:55 41.502171 -112.448009 140 15790ft 347kts
10-Oct-18 08:56 41.431927 -112.363268 136 13818ft 346kts
10-Oct-18 08:57 41.366517 -112.280333 136 11941ft 336kts
10-Oct-18 08:58 41.308493 -112.206447 137 10959ft 271kts
10-Oct-18 08:59 41.265926 -112.148029 133 10977ft 276kts
10-Oct-18 09:00 41.202431 -112.068764 147 10953ft 251kts
10-Oct-18 09:01 41.153623 -112.040202 176 10984ft 232kts
10-Oct-18 09:02 41.077609 -112.030839 176 9689ft 241kts
10-Oct-18 09:03 41.022986 -112.024383 176 8575ft 236kts
10-Oct-18 09:04 40.950901 -112.015994 174 7157ft 222kts
10-Oct-18 09:05 40.900996 -112.010178 173 6127ft 196kts
10-Oct-18 09:06 40.848585 -112.004055 171 5068ft 158kts
10-Oct-18 09:07 40.813722 -112.000067 172 4390ft 150kts
10-Oct-18 09:08 40.787304 -111.995479 122 4239ft 10kts
10-Oct-18 09:09 40.786999 -111.993049 86 4239ft 13kts
10-Oct-18 09:10 40.787857 -111.987244 60 4239ft 14kts
10-Oct-18 09:11 40.788430 -111.985449 71 4239ft 0kts

Navigation Log

Ident Type
Flight plan parsing failed, navigation log unavailable